KASL/ASL METAR and TAF weather

Enter ICAO airport designator
Station Type Date Time Source
KASL METAR 2020/02/29 02:55 UTC NOAA

KASL 290255Z AUTO 00000KT 10SM CLR 06/00 A3035 RMK AO1 T00581004


Station Type Date Time Source
KASL Decoded METAR 2020/02/29 02:55 UTC NOAA

Station name not available
Feb 28, 2020 - 09:55 PM EST / 2020.02.29 0255 UTC
Wind: Calm:0
Visibility: 10 mile(s):0
Sky conditions: clear
Temperature: 42.4 F (5.8 C)
Dew Point: 31.3 F (-0.4 C)
Relative Humidity: 64%
Pressure (altimeter): 30.35 in. Hg (1027 hPa)
ob: KASL 290255Z AUTO 00000KT 10SM CLR 06/00 A3035 RMK AO1 T00581004
cycle: 3

Station Type Date Time Source
KASL TAF UTC NOAA

Error!

Example: see airport list